createdAt,value
2023-03-11T00:01:27.859Z,5.95
2023-03-11T00:06:36.464Z,6.47
2023-03-11T00:11:41.981Z,7.38
2023-03-11T00:16:47.618Z,6.22
2023-03-11T00:21:53.240Z,6.05
2023-03-11T00:26:58.927Z,6.50
2023-03-11T00:32:04.620Z,6.10
2023-03-11T00:37:10.144Z,6.65
2023-03-11T00:42:15.637Z,6.00
2023-03-11T00:47:21.259Z,4.97
2023-03-11T00:52:26.788Z,4.93
2023-03-11T00:57:32.564Z,4.40
2023-03-11T01:02:39.551Z,4.68
2023-03-11T01:07:45.047Z,4.88
2023-03-11T01:12:50.585Z,3.97
2023-03-11T01:17:55.949Z,3.83
2023-03-11T01:23:01.580Z,5.35
2023-03-11T01:28:08.973Z,4.43
2023-03-11T01:33:17.596Z,4.60
2023-03-11T01:38:23.113Z,4.88
2023-03-11T01:43:43.501Z,4.25
2023-03-11T01:49:13.929Z,4.80
2023-03-11T01:54:36.790Z,6.47
2023-03-11T01:59:52.545Z,5.95
2023-03-11T02:04:58.381Z,7.00
2023-03-11T02:10:05.431Z,7.55
2023-03-11T02:15:12.661Z,6.47
2023-03-11T02:20:38.799Z,4.75
2023-03-11T02:26:19.593Z,7.38
2023-03-11T02:31:26.752Z,5.55
2023-03-11T02:36:41.362Z,5.18
2023-03-11T02:41:52.597Z,6.13
2023-03-11T02:47:01.718Z,6.72
2023-03-11T02:57:13.809Z,4.45
2023-03-11T03:02:19.889Z,5.20
2023-03-11T03:07:26.325Z,5.38
2023-03-11T03:12:33.811Z,5.78
2023-03-11T03:17:39.989Z,4.03
2023-03-11T03:22:46.166Z,4.57
2023-03-11T03:33:00.458Z,3.45
2023-03-11T03:38:07.247Z,4.68
2023-03-11T03:43:12.899Z,3.28
2023-03-11T03:48:20.841Z,5.80
2023-03-11T03:53:26.450Z,3.90
2023-03-11T03:58:32.167Z,2.83
2023-03-11T04:03:39.666Z,3.10
2023-03-11T04:08:52.890Z,3.70
2023-03-11T04:14:05.051Z,3.92
2023-03-11T04:19:16.391Z,2.60
2023-03-11T04:24:22.403Z,3.22
2023-03-11T04:29:28.108Z,3.50
2023-03-11T04:34:34.110Z,3.53
2023-03-11T04:39:40.078Z,5.00
2023-03-11T04:44:46.068Z,4.35
2023-03-11T04:49:52.212Z,3.83
2023-03-11T04:54:57.643Z,5.05
2023-03-11T05:00:11.427Z,4.50
2023-03-11T05:05:22.297Z,4.18
2023-03-11T05:10:28.568Z,3.28
2023-03-11T05:15:38.131Z,2.97
2023-03-11T05:20:44.785Z,3.38
2023-03-11T05:25:52.009Z,3.30
2023-03-11T05:30:57.832Z,3.40
2023-03-11T05:36:09.036Z,2.95
2023-03-11T05:41:16.853Z,2.92
2023-03-11T05:46:23.606Z,2.55
2023-03-11T05:51:30.003Z,2.33
2023-03-11T05:56:35.633Z,3.10
2023-03-11T06:01:43.800Z,3.30
2023-03-11T06:06:49.842Z,3.58
2023-03-11T06:12:00.627Z,3.25
2023-03-11T06:17:17.499Z,3.38
2023-03-11T06:22:23.194Z,3.30
2023-03-11T06:27:28.661Z,2.58
2023-03-11T06:32:36.098Z,2.75
2023-03-11T06:37:42.031Z,2.75
2023-03-11T06:42:48.472Z,4.72
2023-03-11T06:47:55.362Z,3.97
2023-03-11T06:53:01.010Z,3.38
2023-03-11T06:58:06.612Z,5.07
2023-03-11T10:39:03.036Z,8.18
2023-03-11T10:44:21.431Z,9.98
2023-03-11T10:49:26.739Z,5.18
2023-03-11T10:54:35.986Z,6.00
2023-03-11T10:59:51.259Z,6.93
2023-03-11T11:05:41.256Z,7.03
2023-03-11T11:10:58.263Z,6.20
2023-03-11T11:16:17.994Z,6.50
2023-03-11T11:21:44.152Z,6.38
2023-03-11T11:27:17.415Z,3.45
2023-03-11T11:32:27.268Z,4.70
2023-03-11T11:37:35.581Z,5.68
2023-03-11T11:42:47.497Z,6.22
2023-03-11T11:47:59.421Z,6.53
2023-03-11T11:53:44.551Z,6.43
2023-03-11T11:58:49.683Z,6.63
2023-03-11T12:04:39.390Z,5.63
2023-03-11T12:10:23.707Z,6.90
2023-03-11T12:15:41.402Z,7.25
2023-03-11T12:20:50.961Z,6.97
2023-03-11T12:25:55.935Z,6.18
2023-03-11T12:31:08.150Z,6.68
2023-03-11T12:36:33.335Z,6.35
2023-03-11T12:41:45.629Z,5.90
2023-03-11T12:47:00.352Z,6.32
2023-03-11T12:52:15.004Z,6.35
2023-03-11T12:57:20.018Z,5.65
2023-03-11T13:02:45.189Z,6.60
2023-03-11T13:07:54.619Z,7.45
2023-03-11T13:12:59.943Z,7.40
2023-03-11T13:18:16.192Z,6.88
2023-03-11T13:23:29.344Z,6.85
2023-03-11T13:29:05.485Z,7.32
2023-03-11T13:34:23.589Z,7.90
2023-03-11T13:39:57.028Z,6.70
2023-03-11T13:45:02.008Z,7.13
2023-03-11T13:50:29.576Z,6.78
2023-03-11T13:55:47.099Z,5.95
2023-03-11T14:00:54.627Z,6.47
2023-03-11T14:06:05.732Z,6.78
2023-03-11T14:11:12.781Z,7.32
2023-03-11T14:16:36.522Z,9.23
2023-03-11T14:21:50.529Z,7.18
2023-03-11T14:32:01.158Z,5.50
2023-03-11T14:37:35.562Z,6.38
2023-03-11T14:42:42.189Z,6.10
2023-03-11T14:48:10.279Z,6.00
2023-03-11T14:53:31.893Z,6.72
2023-03-11T14:58:51.094Z,6.40
2023-03-11T15:04:22.886Z,7.55
2023-03-11T15:09:30.294Z,6.95
2023-03-11T15:14:38.075Z,5.57
2023-03-11T15:19:43.270Z,5.63
2023-03-11T15:24:57.834Z,5.32
2023-03-11T15:30:06.489Z,6.00
2023-03-11T15:35:17.460Z,6.10
2023-03-11T15:40:44.433Z,4.80
2023-03-11T15:45:54.877Z,5.38
2023-03-11T15:51:01.663Z,4.88
2023-03-11T15:56:15.481Z,5.75
2023-03-11T16:01:24.259Z,5.82
2023-03-11T16:06:29.568Z,6.43
2023-03-11T16:11:36.453Z,6.18
2023-03-11T16:16:41.374Z,6.05
2023-03-11T16:21:50.864Z,6.20
2023-03-11T16:26:56.121Z,6.30
2023-03-11T16:32:00.169Z,5.47
2023-03-11T16:37:09.241Z,5.25
2023-03-11T16:42:13.455Z,5.93
2023-03-11T16:47:19.777Z,5.75
2023-03-11T16:52:24.342Z,4.45
2023-03-11T16:57:29.382Z,6.13
2023-03-11T17:02:35.071Z,6.20
2023-03-11T17:07:41.254Z,5.97
2023-03-11T17:12:46.592Z,6.00
2023-03-11T17:17:52.110Z,6.13
2023-03-11T17:22:57.124Z,4.97
2023-03-11T17:28:02.424Z,5.97
2023-03-11T17:33:07.625Z,5.95
2023-03-11T17:38:14.715Z,7.50
2023-03-11T17:43:24.662Z,6.47
2023-03-11T17:48:29.989Z,6.40
2023-03-11T17:53:36.491Z,6.80
2023-03-11T17:58:41.642Z,5.93
2023-03-11T18:03:46.963Z,7.13
2023-03-11T18:08:52.038Z,3.80
2023-03-11T18:13:56.177Z,3.80
2023-03-11T18:19:01.425Z,6.50
2023-03-11T18:24:06.974Z,5.30
2023-03-11T18:29:11.979Z,6.20
2023-03-11T18:34:17.022Z,6.78
2023-03-11T18:39:22.615Z,5.85
2023-03-11T18:44:28.436Z,6.63
2023-03-11T18:49:33.501Z,7.45
2023-03-11T18:54:39.190Z,6.80
2023-03-11T18:59:44.452Z,6.15
2023-03-11T19:04:49.819Z,6.22
2023-03-11T19:09:55.362Z,6.50
2023-03-11T19:15:00.330Z,6.88
2023-03-11T19:20:11.398Z,6.57
2023-03-11T19:25:15.555Z,6.07
2023-03-11T19:30:22.003Z,6.30
2023-03-11T19:35:26.965Z,6.97
2023-03-11T19:40:34.001Z,6.95
2023-03-11T19:45:40.430Z,6.70
2023-03-11T19:50:45.797Z,7.47
2023-03-11T19:55:57.112Z,6.85
2023-03-11T20:01:27.073Z,7.50
2023-03-11T20:06:31.284Z,8.07
2023-03-11T20:11:41.031Z,7.80
2023-03-11T20:16:46.484Z,7.90
2023-03-11T20:21:51.526Z,8.15
2023-03-11T20:26:55.788Z,7.20
2023-03-11T20:32:00.615Z,8.52
2023-03-11T20:37:05.987Z,9.93
2023-03-11T20:42:11.469Z,9.30
2023-03-11T20:47:17.193Z,8.95
2023-03-11T20:52:22.531Z,8.23
2023-03-11T20:57:27.566Z,8.90
2023-03-11T21:02:35.382Z,9.30
2023-03-11T21:12:45.973Z,11.15
2023-03-11T21:17:50.129Z,11.93
2023-03-11T21:22:55.499Z,11.93
2023-03-11T21:28:00.658Z,11.57
2023-03-11T21:33:06.231Z,11.98
2023-03-11T21:38:11.698Z,10.93
2023-03-11T21:43:17.691Z,12.77
2023-03-11T21:48:23.321Z,12.05
2023-03-11T21:53:31.296Z,12.23
2023-03-11T22:03:42.612Z,11.70
2023-03-11T22:08:48.181Z,10.27
2023-03-11T22:13:55.074Z,11.95
2023-03-11T22:19:00.141Z,13.52
2023-03-11T22:24:07.007Z,12.90
2023-03-11T22:29:13.750Z,9.07
2023-03-11T22:34:17.951Z,11.30
2023-03-11T22:39:22.479Z,12.30
2023-03-11T22:44:29.830Z,13.75
2023-03-11T22:49:35.302Z,13.00
2023-03-11T22:54:41.037Z,13.88
2023-03-11T22:59:46.172Z,12.63
2023-03-11T23:04:51.606Z,12.43
2023-03-11T23:09:56.570Z,13.52
2023-03-11T23:15:03.877Z,13.82
2023-03-11T23:20:14.322Z,11.85
2023-03-11T23:25:21.889Z,14.48
2023-03-11T23:30:27.854Z,13.32
2023-03-11T23:35:34.106Z,12.57
2023-03-11T23:40:42.191Z,15.73
2023-03-11T23:45:48.299Z,12.18
2023-03-11T23:50:54.735Z,13.07
2023-03-11T23:55:59.044Z,14.20
